sensor_id;sensor_type;location;lat;lon;timestamp;P1;durP1;ratioP1;P2;durP2;ratioP2
23826;SDS011;12094;50.822;4.376;2023-03-31T00:01:26;19.65;;;2.85;;
23826;SDS011;12094;50.822;4.376;2023-03-31T00:03:55;13.55;;;2.15;;
23826;SDS011;12094;50.822;4.376;2023-03-31T00:06:32;15.00;;;2.53;;
23826;SDS011;12094;50.822;4.376;2023-03-31T00:09:04;23.75;;;3.28;;
23826;SDS011;12094;50.822;4.376;2023-03-31T00:11:48;17.77;;;2.75;;
23826;SDS011;12094;50.822;4.376;2023-03-31T00:17:07;18.80;;;3.00;;
23826;SDS011;12094;50.822;4.376;2023-03-31T00:19:37;23.80;;;3.85;;
23826;SDS011;12094;50.822;4.376;2023-03-31T00:22:05;14.95;;;2.28;;
23826;SDS011;12094;50.822;4.376;2023-03-31T00:24:33;17.52;;;2.75;;
23826;SDS011;12094;50.822;4.376;2023-03-31T00:27:01;10.07;;;1.88;;
23826;SDS011;12094;50.822;4.376;2023-03-31T00:29:30;18.05;;;2.95;;
23826;SDS011;12094;50.822;4.376;2023-03-31T00:31:58;20.88;;;3.17;;
23826;SDS011;12094;50.822;4.376;2023-03-31T00:34:26;14.77;;;2.85;;
23826;SDS011;12094;50.822;4.376;2023-03-31T00:36:59;13.73;;;2.35;;
23826;SDS011;12094;50.822;4.376;2023-03-31T00:39:28;15.77;;;3.08;;
23826;SDS011;12094;50.822;4.376;2023-03-31T00:42:01;15.65;;;2.92;;
23826;SDS011;12094;50.822;4.376;2023-03-31T00:44:30;26.55;;;3.83;;
23826;SDS011;12094;50.822;4.376;2023-03-31T00:47:04;25.80;;;4.35;;
23826;SDS011;12094;50.822;4.376;2023-03-31T00:49:49;20.10;;;3.40;;
23826;SDS011;12094;50.822;4.376;2023-03-31T00:52:22;16.27;;;3.53;;
23826;SDS011;12094;50.822;4.376;2023-03-31T00:55:00;24.23;;;3.55;;
23826;SDS011;12094;50.822;4.376;2023-03-31T00:57:36;25.60;;;3.63;;
23826;SDS011;12094;50.822;4.376;2023-03-31T01:00:07;19.90;;;3.70;;
23826;SDS011;12094;50.822;4.376;2023-03-31T01:02:41;17.60;;;2.67;;
23826;SDS011;12094;50.822;4.376;2023-03-31T01:05:20;21.63;;;3.40;;
23826;SDS011;12094;50.822;4.376;2023-03-31T01:07:51;14.97;;;2.07;;
23826;SDS011;12094;50.822;4.376;2023-03-31T01:10:19;19.38;;;3.22;;
23826;SDS011;12094;50.822;4.376;2023-03-31T01:12:49;18.60;;;3.47;;
23826;SDS011;12094;50.822;4.376;2023-03-31T01:15:19;18.33;;;2.67;;
23826;SDS011;12094;50.822;4.376;2023-03-31T01:17:48;22.50;;;2.63;;
23826;SDS011;12094;50.822;4.376;2023-03-31T01:23:06;13.07;;;2.30;;
23826;SDS011;12094;50.822;4.376;2023-03-31T01:37:11;9.97;;;1.87;;
23826;SDS011;12094;50.822;4.376;2023-03-31T01:40:03;17.30;;;3.00;;
23826;SDS011;12094;50.822;4.376;2023-03-31T01:42:52;16.73;;;2.55;;
23826;SDS011;12094;50.822;4.376;2023-03-31T01:45:46;11.73;;;2.10;;
23826;SDS011;12094;50.822;4.376;2023-03-31T01:51:06;14.65;;;1.95;;
23826;SDS011;12094;50.822;4.376;2023-03-31T02:02:08;11.95;;;2.38;;
23826;SDS011;12094;50.822;4.376;2023-03-31T02:04:49;15.85;;;2.00;;
23826;SDS011;12094;50.822;4.376;2023-03-31T02:07:30;12.13;;;2.03;;
23826;SDS011;12094;50.822;4.376;2023-03-31T02:10:01;13.98;;;1.90;;
23826;SDS011;12094;50.822;4.376;2023-03-31T02:15:03;10.15;;;2.03;;
23826;SDS011;12094;50.822;4.376;2023-03-31T02:17:35;14.05;;;1.95;;
23826;SDS011;12094;50.822;4.376;2023-03-31T02:20:06;11.23;;;1.92;;
23826;SDS011;12094;50.822;4.376;2023-03-31T02:22:38;12.50;;;1.77;;
23826;SDS011;12094;50.822;4.376;2023-03-31T02:25:11;11.50;;;1.80;;
23826;SDS011;12094;50.822;4.376;2023-03-31T02:27:41;8.85;;;1.70;;
23826;SDS011;12094;50.822;4.376;2023-03-31T02:30:11;12.40;;;1.85;;
23826;SDS011;12094;50.822;4.376;2023-03-31T02:32:42;12.45;;;1.95;;
23826;SDS011;12094;50.822;4.376;2023-03-31T02:35:14;13.57;;;2.10;;
23826;SDS011;12094;50.822;4.376;2023-03-31T02:37:43;9.15;;;1.45;;
23826;SDS011;12094;50.822;4.376;2023-03-31T02:40:20;16.60;;;2.00;;
23826;SDS011;12094;50.822;4.376;2023-03-31T02:42:49;10.55;;;1.55;;
23826;SDS011;12094;50.822;4.376;2023-03-31T02:45:35;10.55;;;1.85;;
23826;SDS011;12094;50.822;4.376;2023-03-31T02:48:15;11.90;;;1.95;;
23826;SDS011;12094;50.822;4.376;2023-03-31T02:54:10;11.15;;;1.92;;
23826;SDS011;12094;50.822;4.376;2023-03-31T02:57:10;13.35;;;2.05;;
23826;SDS011;12094;50.822;4.376;2023-03-31T03:11:31;17.83;;;2.42;;
23826;SDS011;12094;50.822;4.376;2023-03-31T03:14:04;10.85;;;1.67;;
23826;SDS011;12094;50.822;4.376;2023-03-31T03:16:56;12.82;;;2.10;;
23826;SDS011;12094;50.822;4.376;2023-03-31T03:19:36;14.95;;;2.45;;
23826;SDS011;12094;50.822;4.376;2023-03-31T03:22:04;17.02;;;1.92;;
23826;SDS011;12094;50.822;4.376;2023-03-31T03:24:34;18.23;;;2.40;;
23826;SDS011;12094;50.822;4.376;2023-03-31T03:27:01;13.73;;;1.95;;
23826;SDS011;12094;50.822;4.376;2023-03-31T03:29:28;12.57;;;1.77;;
23826;SDS011;12094;50.822;4.376;2023-03-31T03:31:56;15.63;;;2.30;;
23826;SDS011;12094;50.822;4.376;2023-03-31T03:34:24;16.92;;;2.45;;
23826;SDS011;12094;50.822;4.376;2023-03-31T03:36:53;17.33;;;2.47;;
23826;SDS011;12094;50.822;4.376;2023-03-31T03:39:20;15.68;;;2.65;;
23826;SDS011;12094;50.822;4.376;2023-03-31T03:41:50;11.43;;;1.83;;
23826;SDS011;12094;50.822;4.376;2023-03-31T03:46:47;6.38;;;0.75;;
23826;SDS011;12094;50.822;4.376;2023-03-31T03:51:52;7.88;;;0.85;;
23826;SDS011;12094;50.822;4.376;2023-03-31T03:54:22;3.97;;;0.70;;
23826;SDS011;12094;50.822;4.376;2023-03-31T03:56:50;3.88;;;0.50;;
23826;SDS011;12094;50.822;4.376;2023-03-31T03:59:18;1.52;;;0.40;;
23826;SDS011;12094;50.822;4.376;2023-03-31T04:01:45;5.53;;;0.70;;
23826;SDS011;12094;50.822;4.376;2023-03-31T04:04:12;2.45;;;0.63;;
23826;SDS011;12094;50.822;4.376;2023-03-31T04:06:39;2.33;;;0.50;;
23826;SDS011;12094;50.822;4.376;2023-03-31T04:09:06;3.40;;;0.60;;
23826;SDS011;12094;50.822;4.376;2023-03-31T04:11:34;4.70;;;0.60;;
23826;SDS011;12094;50.822;4.376;2023-03-31T04:14:02;4.47;;;0.70;;
23826;SDS011;12094;50.822;4.376;2023-03-31T04:16:31;6.70;;;0.93;;
23826;SDS011;12094;50.822;4.376;2023-03-31T04:19:00;6.53;;;0.90;;
23826;SDS011;12094;50.822;4.376;2023-03-31T04:21:30;8.20;;;1.45;;
23826;SDS011;12094;50.822;4.376;2023-03-31T04:24:03;5.05;;;1.30;;
23826;SDS011;12094;50.822;4.376;2023-03-31T04:26:32;5.93;;;1.35;;
23826;SDS011;12094;50.822;4.376;2023-03-31T04:29:10;10.82;;;2.00;;
23826;SDS011;12094;50.822;4.376;2023-03-31T04:31:39;14.95;;;2.00;;
23826;SDS011;12094;50.822;4.376;2023-03-31T04:34:11;13.52;;;2.17;;
23826;SDS011;12094;50.822;4.376;2023-03-31T04:36:42;17.92;;;2.55;;
23826;SDS011;12094;50.822;4.376;2023-03-31T04:39:18;10.43;;;2.28;;
23826;SDS011;12094;50.822;4.376;2023-03-31T04:41:56;14.48;;;2.50;;
23826;SDS011;12094;50.822;4.376;2023-03-31T04:44:26;11.10;;;2.08;;
23826;SDS011;12094;50.822;4.376;2023-03-31T04:46:55;16.33;;;2.50;;
23826;SDS011;12094;50.822;4.376;2023-03-31T04:49:24;15.73;;;2.83;;
23826;SDS011;12094;50.822;4.376;2023-03-31T04:51:52;9.65;;;1.73;;
23826;SDS011;12094;50.822;4.376;2023-03-31T04:54:19;16.42;;;2.50;;
23826;SDS011;12094;50.822;4.376;2023-03-31T04:56:47;12.82;;;2.30;;
23826;SDS011;12094;50.822;4.376;2023-03-31T04:59:14;12.18;;;2.05;;
23826;SDS011;12094;50.822;4.376;2023-03-31T05:01:42;16.27;;;3.13;;
23826;SDS011;12094;50.822;4.376;2023-03-31T05:04:11;14.18;;;2.13;;
23826;SDS011;12094;50.822;4.376;2023-03-31T05:06:39;18.40;;;3.13;;
23826;SDS011;12094;50.822;4.376;2023-03-31T05:09:07;11.00;;;2.38;;
23826;SDS011;12094;50.822;4.376;2023-03-31T05:11:36;16.25;;;2.35;;
23826;SDS011;12094;50.822;4.376;2023-03-31T05:14:03;18.92;;;2.90;;
23826;SDS011;12094;50.822;4.376;2023-03-31T05:16:32;17.70;;;2.65;;
23826;SDS011;12094;50.822;4.376;2023-03-31T05:19:01;24.02;;;3.17;;
23826;SDS011;12094;50.822;4.376;2023-03-31T05:21:30;15.20;;;2.28;;
23826;SDS011;12094;50.822;4.376;2023-03-31T05:23:59;16.52;;;2.40;;
23826;SDS011;12094;50.822;4.376;2023-03-31T05:26:26;15.60;;;2.88;;
23826;SDS011;12094;50.822;4.376;2023-03-31T05:28:55;18.95;;;3.00;;
23826;SDS011;12094;50.822;4.376;2023-03-31T05:31:22;15.73;;;2.85;;
23826;SDS011;12094;50.822;4.376;2023-03-31T05:33:49;14.73;;;2.85;;
23826;SDS011;12094;50.822;4.376;2023-03-31T05:36:17;10.98;;;2.50;;
23826;SDS011;12094;50.822;4.376;2023-03-31T05:38:44;13.68;;;2.85;;
23826;SDS011;12094;50.822;4.376;2023-03-31T05:41:14;21.92;;;3.05;;
23826;SDS011;12094;50.822;4.376;2023-03-31T05:43:42;10.25;;;1.90;;
23826;SDS011;12094;50.822;4.376;2023-03-31T05:46:09;16.77;;;2.70;;
23826;SDS011;12094;50.822;4.376;2023-03-31T05:48:39;17.75;;;2.53;;
23826;SDS011;12094;50.822;4.376;2023-03-31T05:51:06;9.93;;;2.55;;
23826;SDS011;12094;50.822;4.376;2023-03-31T05:53:33;17.55;;;3.05;;
23826;SDS011;12094;50.822;4.376;2023-03-31T05:56:02;19.77;;;3.58;;
23826;SDS011;12094;50.822;4.376;2023-03-31T05:58:33;17.88;;;2.22;;
23826;SDS011;12094;50.822;4.376;2023-03-31T06:01:11;16.73;;;2.85;;
23826;SDS011;12094;50.822;4.376;2023-03-31T06:03:48;19.20;;;3.10;;
23826;SDS011;12094;50.822;4.376;2023-03-31T06:06:16;23.63;;;3.30;;
23826;SDS011;12094;50.822;4.376;2023-03-31T06:08:45;8.98;;;1.98;;
23826;SDS011;12094;50.822;4.376;2023-03-31T06:11:14;15.27;;;2.70;;
23826;SDS011;12094;50.822;4.376;2023-03-31T06:16:13;18.75;;;3.42;;
23826;SDS011;12094;50.822;4.376;2023-03-31T06:18:42;19.00;;;2.92;;
23826;SDS011;12094;50.822;4.376;2023-03-31T06:21:11;20.23;;;3.13;;
23826;SDS011;12094;50.822;4.376;2023-03-31T06:23:41;24.85;;;3.72;;
23826;SDS011;12094;50.822;4.376;2023-03-31T06:26:11;21.23;;;3.75;;
23826;SDS011;12094;50.822;4.376;2023-03-31T06:28:40;18.70;;;3.05;;
23826;SDS011;12094;50.822;4.376;2023-03-31T06:31:09;25.08;;;3.35;;
23826;SDS011;12094;50.822;4.376;2023-03-31T06:33:39;15.82;;;3.50;;
23826;SDS011;12094;50.822;4.376;2023-03-31T06:36:07;22.02;;;4.10;;
23826;SDS011;12094;50.822;4.376;2023-03-31T06:38:38;18.75;;;3.30;;
23826;SDS011;12094;50.822;4.376;2023-03-31T06:41:06;13.52;;;3.15;;
23826;SDS011;12094;50.822;4.376;2023-03-31T06:43:35;17.88;;;3.20;;
23826;SDS011;12094;50.822;4.376;2023-03-31T06:46:03;23.77;;;3.00;;
23826;SDS011;12094;50.822;4.376;2023-03-31T06:48:31;20.55;;;3.33;;
23826;SDS011;12094;50.822;4.376;2023-03-31T06:51:01;19.23;;;2.92;;
23826;SDS011;12094;50.822;4.376;2023-03-31T06:53:31;23.13;;;3.40;;
23826;SDS011;12094;50.822;4.376;2023-03-31T06:56:00;19.58;;;3.70;;
23826;SDS011;12094;50.822;4.376;2023-03-31T06:58:28;23.10;;;3.53;;
23826;SDS011;12094;50.822;4.376;2023-03-31T07:00:58;23.85;;;3.65;;
23826;SDS011;12094;50.822;4.376;2023-03-31T07:03:28;21.75;;;3.03;;
23826;SDS011;12094;50.822;4.376;2023-03-31T07:05:56;22.73;;;4.03;;
23826;SDS011;12094;50.822;4.376;2023-03-31T07:08:24;15.45;;;3.25;;
23826;SDS011;12094;50.822;4.376;2023-03-31T07:10:56;23.92;;;3.58;;
23826;SDS011;12094;50.822;4.376;2023-03-31T07:13:26;25.40;;;3.80;;
23826;SDS011;12094;50.822;4.376;2023-03-31T07:15:53;28.58;;;4.18;;
23826;SDS011;12094;50.822;4.376;2023-03-31T07:18:23;23.42;;;3.25;;
23826;SDS011;12094;50.822;4.376;2023-03-31T07:21:00;16.58;;;2.50;;
23826;SDS011;12094;50.822;4.376;2023-03-31T07:23:33;18.52;;;3.45;;
23826;SDS011;12094;50.822;4.376;2023-03-31T07:26:02;26.35;;;3.90;;
23826;SDS011;12094;50.822;4.376;2023-03-31T07:28:29;19.45;;;3.08;;
23826;SDS011;12094;50.822;4.376;2023-03-31T07:30:56;19.67;;;2.95;;
23826;SDS011;12094;50.822;4.376;2023-03-31T07:33:23;21.73;;;3.25;;
23826;SDS011;12094;50.822;4.376;2023-03-31T07:35:51;20.90;;;4.03;;
23826;SDS011;12094;50.822;4.376;2023-03-31T07:38:37;21.27;;;3.05;;
23826;SDS011;12094;50.822;4.376;2023-03-31T07:41:08;21.45;;;4.05;;
23826;SDS011;12094;50.822;4.376;2023-03-31T07:43:37;26.77;;;3.90;;
23826;SDS011;12094;50.822;4.376;2023-03-31T07:46:05;24.73;;;3.90;;
23826;SDS011;12094;50.822;4.376;2023-03-31T07:48:38;19.30;;;4.40;;
23826;SDS011;12094;50.822;4.376;2023-03-31T07:51:08;27.15;;;4.40;;
23826;SDS011;12094;50.822;4.376;2023-03-31T07:53:36;25.70;;;4.22;;
23826;SDS011;12094;50.822;4.376;2023-03-31T07:56:03;14.15;;;2.75;;
23826;SDS011;12094;50.822;4.376;2023-03-31T07:58:31;24.88;;;4.50;;
23826;SDS011;12094;50.822;4.376;2023-03-31T08:00:58;27.08;;;4.85;;
23826;SDS011;12094;50.822;4.376;2023-03-31T08:03:26;26.33;;;4.43;;
23826;SDS011;12094;50.822;4.376;2023-03-31T08:05:53;21.23;;;4.22;;
23826;SDS011;12094;50.822;4.376;2023-03-31T08:08:20;28.40;;;4.75;;
23826;SDS011;12094;50.822;4.376;2023-03-31T08:10:48;26.00;;;4.72;;
23826;SDS011;12094;50.822;4.376;2023-03-31T08:13:16;26.45;;;4.38;;
23826;SDS011;12094;50.822;4.376;2023-03-31T08:15:43;29.25;;;4.47;;
23826;SDS011;12094;50.822;4.376;2023-03-31T08:18:10;21.10;;;3.60;;
23826;SDS011;12094;50.822;4.376;2023-03-31T08:20:37;20.02;;;3.47;;
23826;SDS011;12094;50.822;4.376;2023-03-31T08:25:37;27.05;;;3.50;;
23826;SDS011;12094;50.822;4.376;2023-03-31T08:28:05;14.70;;;2.72;;
23826;SDS011;12094;50.822;4.376;2023-03-31T08:30:36;19.02;;;3.38;;
23826;SDS011;12094;50.822;4.376;2023-03-31T08:33:07;16.33;;;2.85;;
23826;SDS011;12094;50.822;4.376;2023-03-31T08:35:37;24.40;;;3.92;;
23826;SDS011;12094;50.822;4.376;2023-03-31T08:38:07;18.13;;;3.45;;
23826;SDS011;12094;50.822;4.376;2023-03-31T08:40:42;19.23;;;4.18;;
23826;SDS011;12094;50.822;4.376;2023-03-31T08:43:13;21.85;;;3.90;;
23826;SDS011;12094;50.822;4.376;2023-03-31T08:45:48;20.35;;;4.07;;
23826;SDS011;12094;50.822;4.376;2023-03-31T08:48:29;23.27;;;4.63;;
23826;SDS011;12094;50.822;4.376;2023-03-31T08:51:08;22.08;;;5.82;;
23826;SDS011;12094;50.822;4.376;2023-03-31T08:53:45;22.02;;;4.70;;
23826;SDS011;12094;50.822;4.376;2023-03-31T08:56:21;16.25;;;3.50;;
23826;SDS011;12094;50.822;4.376;2023-03-31T08:58:49;17.27;;;2.88;;
23826;SDS011;12094;50.822;4.376;2023-03-31T09:01:26;21.50;;;3.80;;
23826;SDS011;12094;50.822;4.376;2023-03-31T09:04:27;23.33;;;4.13;;
23826;SDS011;12094;50.822;4.376;2023-03-31T09:15:03;18.58;;;2.88;;
23826;SDS011;12094;50.822;4.376;2023-03-31T09:17:40;26.73;;;3.97;;
23826;SDS011;12094;50.822;4.376;2023-03-31T09:20:12;26.38;;;3.97;;
23826;SDS011;12094;50.822;4.376;2023-03-31T09:22:49;29.95;;;3.80;;
23826;SDS011;12094;50.822;4.376;2023-03-31T09:25:30;19.88;;;3.22;;
23826;SDS011;12094;50.822;4.376;2023-03-31T09:28:02;27.17;;;4.32;;
23826;SDS011;12094;50.822;4.376;2023-03-31T09:30:35;12.13;;;1.90;;
23826;SDS011;12094;50.822;4.376;2023-03-31T09:33:13;22.50;;;2.95;;
23826;SDS011;12094;50.822;4.376;2023-03-31T09:35:44;22.45;;;4.30;;
23826;SDS011;12094;50.822;4.376;2023-03-31T09:38:12;12.63;;;2.97;;
23826;SDS011;12094;50.822;4.376;2023-03-31T09:40:41;20.30;;;4.10;;
23826;SDS011;12094;50.822;4.376;2023-03-31T09:43:20;25.95;;;3.78;;
23826;SDS011;12094;50.822;4.376;2023-03-31T09:45:50;24.52;;;4.22;;
23826;SDS011;12094;50.822;4.376;2023-03-31T09:48:38;15.88;;;2.78;;
23826;SDS011;12094;50.822;4.376;2023-03-31T09:51:12;36.47;;;4.57;;
23826;SDS011;12094;50.822;4.376;2023-03-31T09:59:19;29.27;;;4.40;;
23826;SDS011;12094;50.822;4.376;2023-03-31T10:01:51;20.15;;;3.20;;
23826;SDS011;12094;50.822;4.376;2023-03-31T10:04:23;31.33;;;4.88;;
23826;SDS011;12094;50.822;4.376;2023-03-31T10:06:51;28.42;;;4.10;;
23826;SDS011;12094;50.822;4.376;2023-03-31T10:09:24;27.67;;;4.68;;
23826;SDS011;12094;50.822;4.376;2023-03-31T10:14:24;28.00;;;5.18;;
23826;SDS011;12094;50.822;4.376;2023-03-31T10:16:55;21.70;;;4.50;;
23826;SDS011;12094;50.822;4.376;2023-03-31T10:19:27;21.92;;;3.75;;
23826;SDS011;12094;50.822;4.376;2023-03-31T10:21:57;28.88;;;3.85;;
23826;SDS011;12094;50.822;4.376;2023-03-31T10:24:40;31.30;;;4.63;;
23826;SDS011;12094;50.822;4.376;2023-03-31T10:27:17;23.88;;;4.47;;
23826;SDS011;12094;50.822;4.376;2023-03-31T10:29:56;14.52;;;3.40;;
23826;SDS011;12094;50.822;4.376;2023-03-31T10:32:29;17.92;;;3.10;;
23826;SDS011;12094;50.822;4.376;2023-03-31T10:35:07;30.80;;;4.50;;
23826;SDS011;12094;50.822;4.376;2023-03-31T10:37:48;19.98;;;3.40;;
23826;SDS011;12094;50.822;4.376;2023-03-31T10:40:22;23.40;;;2.83;;
23826;SDS011;12094;50.822;4.376;2023-03-31T10:43:02;18.08;;;3.85;;
23826;SDS011;12094;50.822;4.376;2023-03-31T10:45:41;21.17;;;3.50;;
23826;SDS011;12094;50.822;4.376;2023-03-31T10:48:29;23.15;;;3.80;;
23826;SDS011;12094;50.822;4.376;2023-03-31T10:51:19;24.73;;;3.85;;
23826;SDS011;12094;50.822;4.376;2023-03-31T10:53:47;24.05;;;4.55;;
23826;SDS011;12094;50.822;4.376;2023-03-31T11:02:21;12.13;;;2.20;;
23826;SDS011;12094;50.822;4.376;2023-03-31T11:22:00;24.02;;;4.13;;
23826;SDS011;12094;50.822;4.376;2023-03-31T11:24:50;25.03;;;4.40;;
23826;SDS011;12094;50.822;4.376;2023-03-31T11:27:40;22.05;;;3.15;;
23826;SDS011;12094;50.822;4.376;2023-03-31T11:44:05;14.70;;;2.63;;
23826;SDS011;12094;50.822;4.376;2023-03-31T11:46:39;20.85;;;3.40;;
23826;SDS011;12094;50.822;4.376;2023-03-31T11:49:29;19.75;;;2.92;;
23826;SDS011;12094;50.822;4.376;2023-03-31T11:52:09;19.52;;;3.55;;
23826;SDS011;12094;50.822;4.376;2023-03-31T11:54:54;17.10;;;2.45;;
23826;SDS011;12094;50.822;4.376;2023-03-31T11:57:54;15.63;;;2.75;;
23826;SDS011;12094;50.822;4.376;2023-03-31T12:00:55;16.63;;;3.08;;
23826;SDS011;12094;50.822;4.376;2023-03-31T12:03:57;16.10;;;3.22;;
23826;SDS011;12094;50.822;4.376;2023-03-31T12:06:31;12.05;;;1.80;;
23826;SDS011;12094;50.822;4.376;2023-03-31T12:09:18;20.10;;;3.05;;
23826;SDS011;12094;50.822;4.376;2023-03-31T12:11:55;17.02;;;2.95;;
23826;SDS011;12094;50.822;4.376;2023-03-31T12:14:33;21.83;;;3.05;;
23826;SDS011;12094;50.822;4.376;2023-03-31T12:17:12;15.83;;;2.83;;
23826;SDS011;12094;50.822;4.376;2023-03-31T12:19:55;18.67;;;3.80;;
23826;SDS011;12094;50.822;4.376;2023-03-31T12:27:44;15.27;;;2.10;;
23826;SDS011;12094;50.822;4.376;2023-03-31T12:30:19;12.05;;;2.17;;
23826;SDS011;12094;50.822;4.376;2023-03-31T12:47:16;14.02;;;1.88;;
23826;SDS011;12094;50.822;4.376;2023-03-31T12:49:44;9.55;;;2.00;;
23826;SDS011;12094;50.822;4.376;2023-03-31T12:52:57;9.23;;;1.33;;
23826;SDS011;12094;50.822;4.376;2023-03-31T12:55:46;14.43;;;1.30;;
23826;SDS011;12094;50.822;4.376;2023-03-31T13:03:41;4.57;;;1.02;;
23826;SDS011;12094;50.822;4.376;2023-03-31T13:11:44;8.27;;;1.30;;
23826;SDS011;12094;50.822;4.376;2023-03-31T13:16:43;5.78;;;1.10;;
23826;SDS011;12094;50.822;4.376;2023-03-31T13:19:12;2.78;;;0.80;;
23826;SDS011;12094;50.822;4.376;2023-03-31T13:22:03;5.65;;;1.20;;
23826;SDS011;12094;50.822;4.376;2023-03-31T13:24:32;6.70;;;1.17;;
23826;SDS011;12094;50.822;4.376;2023-03-31T13:29:59;5.82;;;1.20;;
23826;SDS011;12094;50.822;4.376;2023-03-31T13:32:26;6.38;;;0.98;;
23826;SDS011;12094;50.822;4.376;2023-03-31T13:38:04;5.85;;;0.80;;
23826;SDS011;12094;50.822;4.376;2023-03-31T13:41:00;2.92;;;0.88;;
23826;SDS011;12094;50.822;4.376;2023-03-31T14:07:08;3.47;;;0.87;;
23826;SDS011;12094;50.822;4.376;2023-03-31T14:09:48;2.78;;;0.75;;
23826;SDS011;12094;50.822;4.376;2023-03-31T14:12:32;4.88;;;0.85;;
23826;SDS011;12094;50.822;4.376;2023-03-31T14:15:02;2.53;;;0.50;;
23826;SDS011;12094;50.822;4.376;2023-03-31T14:17:36;6.13;;;0.80;;
23826;SDS011;12094;50.822;4.376;2023-03-31T14:39:25;3.45;;;0.52;;
23826;SDS011;12094;50.822;4.376;2023-03-31T14:42:20;3.97;;;0.88;;
23826;SDS011;12094;50.822;4.376;2023-03-31T14:44:47;3.55;;;0.70;;
23826;SDS011;12094;50.822;4.376;2023-03-31T14:47:25;3.42;;;0.65;;
23826;SDS011;12094;50.822;4.376;2023-03-31T14:52:48;2.17;;;0.65;;
23826;SDS011;12094;50.822;4.376;2023-03-31T14:58:31;3.33;;;0.68;;
23826;SDS011;12094;50.822;4.376;2023-03-31T15:01:04;5.55;;;1.10;;
23826;SDS011;12094;50.822;4.376;2023-03-31T15:03:34;2.50;;;0.70;;
23826;SDS011;12094;50.822;4.376;2023-03-31T15:06:10;3.80;;;0.93;;
23826;SDS011;12094;50.822;4.376;2023-03-31T15:08:41;3.47;;;0.80;;
23826;SDS011;12094;50.822;4.376;2023-03-31T15:11:18;2.88;;;0.70;;
23826;SDS011;12094;50.822;4.376;2023-03-31T15:13:48;4.80;;;0.95;;
23826;SDS011;12094;50.822;4.376;2023-03-31T15:16:39;2.70;;;0.70;;
23826;SDS011;12094;50.822;4.376;2023-03-31T15:19:31;5.95;;;0.98;;
23826;SDS011;12094;50.822;4.376;2023-03-31T15:22:15;1.50;;;0.65;;
23826;SDS011;12094;50.822;4.376;2023-03-31T15:24:46;4.30;;;0.80;;
23826;SDS011;12094;50.822;4.376;2023-03-31T15:30:03;2.15;;;0.73;;
23826;SDS011;12094;50.822;4.376;2023-03-31T15:32:35;3.72;;;0.80;;
23826;SDS011;12094;50.822;4.376;2023-03-31T15:35:47;6.07;;;1.00;;
23826;SDS011;12094;50.822;4.376;2023-03-31T15:37:58;5.15;;;0.85;;
23826;SDS011;12094;50.822;4.376;2023-03-31T15:40:27;4.40;;;0.88;;
23826;SDS011;12094;50.822;4.376;2023-03-31T15:43:04;7.30;;;1.27;;
23826;SDS011;12094;50.822;4.376;2023-03-31T15:45:52;3.42;;;0.93;;
23826;SDS011;12094;50.822;4.376;2023-03-31T15:48:29;5.78;;;1.10;;
23826;SDS011;12094;50.822;4.376;2023-03-31T15:51:06;7.53;;;1.23;;
23826;SDS011;12094;50.822;4.376;2023-03-31T15:53:44;6.38;;;1.50;;
23826;SDS011;12094;50.822;4.376;2023-03-31T15:56:23;4.47;;;1.08;;
23826;SDS011;12094;50.822;4.376;2023-03-31T15:58:54;7.55;;;1.23;;
23826;SDS011;12094;50.822;4.376;2023-03-31T16:01:29;7.78;;;1.20;;
23826;SDS011;12094;50.822;4.376;2023-03-31T16:04:04;6.93;;;1.40;;
23826;SDS011;12094;50.822;4.376;2023-03-31T16:11:57;8.77;;;1.73;;
23826;SDS011;12094;50.822;4.376;2023-03-31T16:14:36;7.07;;;1.60;;
23826;SDS011;12094;50.822;4.376;2023-03-31T16:17:37;10.65;;;1.20;;
23826;SDS011;12094;50.822;4.376;2023-03-31T16:20:29;9.93;;;1.48;;
23826;SDS011;12094;50.822;4.376;2023-03-31T16:23:11;7.50;;;1.25;;
23826;SDS011;12094;50.822;4.376;2023-03-31T16:25:44;10.20;;;1.50;;
23826;SDS011;12094;50.822;4.376;2023-03-31T16:28:21;5.80;;;1.38;;
23826;SDS011;12094;50.822;4.376;2023-03-31T16:30:52;6.70;;;1.30;;
23826;SDS011;12094;50.822;4.376;2023-03-31T16:33:21;8.85;;;1.40;;
23826;SDS011;12094;50.822;4.376;2023-03-31T16:35:53;9.90;;;1.38;;
23826;SDS011;12094;50.822;4.376;2023-03-31T16:38:26;9.15;;;1.63;;
23826;SDS011;12094;50.822;4.376;2023-03-31T16:40:56;6.68;;;1.90;;
23826;SDS011;12094;50.822;4.376;2023-03-31T16:43:28;8.93;;;1.85;;
23826;SDS011;12094;50.822;4.376;2023-03-31T16:45:58;6.85;;;1.70;;
23826;SDS011;12094;50.822;4.376;2023-03-31T16:48:29;12.87;;;2.00;;
23826;SDS011;12094;50.822;4.376;2023-03-31T16:51:01;8.40;;;1.73;;
23826;SDS011;12094;50.822;4.376;2023-03-31T16:53:33;6.88;;;2.08;;
23826;SDS011;12094;50.822;4.376;2023-03-31T16:56:07;5.88;;;1.40;;
23826;SDS011;12094;50.822;4.376;2023-03-31T16:58:35;4.97;;;1.38;;
23826;SDS011;12094;50.822;4.376;2023-03-31T17:03:37;8.48;;;1.60;;
23826;SDS011;12094;50.822;4.376;2023-03-31T17:06:11;8.40;;;1.10;;
23826;SDS011;12094;50.822;4.376;2023-03-31T17:08:39;8.90;;;1.40;;
23826;SDS011;12094;50.822;4.376;2023-03-31T17:11:08;6.63;;;1.30;;
23826;SDS011;12094;50.822;4.376;2023-03-31T17:13:38;7.10;;;1.47;;
23826;SDS011;12094;50.822;4.376;2023-03-31T17:16:07;13.90;;;2.17;;
23826;SDS011;12094;50.822;4.376;2023-03-31T17:18:50;9.35;;;1.92;;
23826;SDS011;12094;50.822;4.376;2023-03-31T17:21:19;11.40;;;1.70;;
23826;SDS011;12094;50.822;4.376;2023-03-31T17:23:50;8.98;;;1.85;;
23826;SDS011;12094;50.822;4.376;2023-03-31T17:26:19;12.77;;;2.67;;
23826;SDS011;12094;50.822;4.376;2023-03-31T17:28:47;5.78;;;1.45;;
23826;SDS011;12094;50.822;4.376;2023-03-31T17:31:16;18.35;;;2.78;;
23826;SDS011;12094;50.822;4.376;2023-03-31T17:33:45;12.73;;;2.53;;
23826;SDS011;12094;50.822;4.376;2023-03-31T17:36:14;14.82;;;2.30;;
23826;SDS011;12094;50.822;4.376;2023-03-31T17:38:42;9.35;;;1.85;;
23826;SDS011;12094;50.822;4.376;2023-03-31T17:41:10;12.80;;;1.52;;
23826;SDS011;12094;50.822;4.376;2023-03-31T17:43:38;16.60;;;2.40;;
23826;SDS011;12094;50.822;4.376;2023-03-31T17:46:10;12.63;;;2.53;;
23826;SDS011;12094;50.822;4.376;2023-03-31T17:48:38;14.80;;;2.42;;
23826;SDS011;12094;50.822;4.376;2023-03-31T17:51:08;15.00;;;2.95;;
23826;SDS011;12094;50.822;4.376;2023-03-31T17:53:42;16.15;;;2.83;;
23826;SDS011;12094;50.822;4.376;2023-03-31T17:56:13;25.30;;;3.53;;
23826;SDS011;12094;50.822;4.376;2023-03-31T17:58:41;15.93;;;2.15;;
23826;SDS011;12094;50.822;4.376;2023-03-31T18:01:09;18.13;;;3.08;;
23826;SDS011;12094;50.822;4.376;2023-03-31T18:03:37;25.02;;;3.70;;
23826;SDS011;12094;50.822;4.376;2023-03-31T18:06:06;28.25;;;5.50;;
23826;SDS011;12094;50.822;4.376;2023-03-31T18:08:37;10.85;;;2.22;;
23826;SDS011;12094;50.822;4.376;2023-03-31T18:11:06;21.08;;;2.95;;
23826;SDS011;12094;50.822;4.376;2023-03-31T18:13:35;18.15;;;2.83;;
23826;SDS011;12094;50.822;4.376;2023-03-31T18:16:03;22.80;;;3.35;;
23826;SDS011;12094;50.822;4.376;2023-03-31T18:18:31;18.60;;;3.80;;
23826;SDS011;12094;50.822;4.376;2023-03-31T18:21:02;18.58;;;3.00;;
23826;SDS011;12094;50.822;4.376;2023-03-31T18:23:38;21.65;;;3.20;;
23826;SDS011;12094;50.822;4.376;2023-03-31T18:26:10;17.58;;;3.17;;
23826;SDS011;12094;50.822;4.376;2023-03-31T18:34:32;25.40;;;3.83;;
23826;SDS011;12094;50.822;4.376;2023-03-31T18:37:02;20.45;;;3.65;;
23826;SDS011;12094;50.822;4.376;2023-03-31T18:39:31;16.45;;;2.53;;
23826;SDS011;12094;50.822;4.376;2023-03-31T18:41:59;23.88;;;3.50;;
23826;SDS011;12094;50.822;4.376;2023-03-31T18:44:26;23.30;;;3.90;;
23826;SDS011;12094;50.822;4.376;2023-03-31T18:46:53;22.65;;;3.33;;